createdAt,value
2023-04-08T00:00:27.303Z,89.03
2023-04-08T00:01:50.228Z,89.01
2023-04-08T00:02:53.167Z,88.94
2023-04-08T00:03:56.444Z,89.03
2023-04-08T00:04:59.633Z,88.93
2023-04-08T00:06:03.984Z,89.00
2023-04-08T00:07:07.375Z,89.00
2023-04-08T00:08:10.324Z,88.92
2023-04-08T00:09:13.224Z,89.00
2023-04-08T00:10:16.461Z,88.81
2023-04-08T00:11:19.310Z,88.81
2023-04-08T00:12:22.318Z,88.86
2023-04-08T00:13:26.277Z,88.99
2023-04-08T00:14:29.130Z,88.93
2023-04-08T00:15:31.967Z,88.88
2023-04-08T00:16:35.056Z,88.81
2023-04-08T00:17:38.340Z,88.94
2023-04-08T00:18:41.430Z,88.97
2023-04-08T00:19:45.105Z,88.84
2023-04-08T00:20:48.395Z,88.91
2023-04-08T00:21:51.789Z,89.02
2023-04-08T00:22:54.638Z,88.75
2023-04-08T00:23:57.611Z,88.90
2023-04-08T00:25:00.723Z,88.89
2023-04-08T00:26:03.706Z,88.88
2023-04-08T00:27:06.654Z,88.81
2023-04-08T00:28:09.630Z,88.97
2023-04-08T00:29:13.453Z,88.87
2023-04-08T00:30:17.153Z,88.80
2023-04-08T00:31:22.018Z,88.92
2023-04-08T00:32:27.667Z,88.84
2023-04-08T00:33:30.518Z,88.94
2023-04-08T00:34:33.441Z,88.99
2023-04-08T00:35:36.795Z,88.92
2023-04-08T00:36:40.257Z,88.98
2023-04-08T00:37:43.203Z,89.02
2023-04-08T00:38:46.073Z,88.95
2023-04-08T00:39:48.901Z,89.07
2023-04-08T00:40:51.795Z,88.96
2023-04-08T00:41:54.701Z,89.00
2023-04-08T00:42:58.713Z,89.11
2023-04-08T00:44:02.161Z,89.03
2023-04-08T00:45:05.565Z,88.99
2023-04-08T00:46:09.854Z,89.06
2023-04-08T00:47:13.763Z,89.09
2023-04-08T00:48:16.633Z,89.21
2023-04-08T00:49:20.111Z,89.19
2023-04-08T00:50:23.387Z,89.25
2023-04-08T00:51:26.377Z,89.25
2023-04-08T00:52:29.305Z,89.20
2023-04-08T00:53:32.646Z,89.27
2023-04-08T00:54:37.237Z,89.18
2023-04-08T00:55:40.106Z,89.32
2023-04-08T00:56:44.609Z,89.25
2023-04-08T00:57:48.743Z,89.28
2023-04-08T00:58:55.172Z,89.18
2023-04-08T00:59:59.675Z,89.24
2023-04-08T01:01:11.342Z,89.32
2023-04-08T01:02:35.717Z,89.29
2023-04-08T01:03:58.219Z,89.30
2023-04-08T01:05:08.213Z,89.40
2023-04-08T01:06:22.620Z,89.44
2023-04-08T01:07:31.381Z,89.36
2023-04-08T01:08:38.435Z,89.30
2023-04-08T01:09:48.552Z,89.27
2023-04-08T01:10:58.400Z,89.44
2023-04-08T01:12:06.170Z,89.28
2023-04-08T01:13:12.278Z,89.35
2023-04-08T01:14:21.143Z,89.44
2023-04-08T01:15:29.218Z,89.46
2023-04-08T01:16:32.646Z,89.44
2023-04-08T01:17:37.843Z,89.36
2023-04-08T01:18:44.671Z,89.42
2023-04-08T01:19:49.496Z,89.37
2023-04-08T01:20:54.801Z,89.37
2023-04-08T01:22:09.111Z,89.45
2023-04-08T01:24:02.297Z,89.49
2023-04-08T01:25:08.886Z,89.30
2023-04-08T01:26:21.534Z,89.20
2023-04-08T01:27:24.890Z,89.35
2023-04-08T01:28:31.381Z,89.35
2023-04-08T01:29:36.626Z,89.39
2023-04-08T01:30:43.018Z,89.36
2023-04-08T01:31:47.209Z,89.35
2023-04-08T01:32:52.402Z,89.37
2023-04-08T01:33:57.716Z,89.41
2023-04-08T01:35:02.497Z,89.34
2023-04-08T01:36:06.766Z,89.49
2023-04-08T01:37:15.577Z,89.51
2023-04-08T01:38:21.109Z,89.46
2023-04-08T01:39:26.129Z,89.41
2023-04-08T01:40:29.884Z,89.47
2023-04-08T01:41:36.161Z,89.53
2023-04-08T01:42:39.958Z,89.57
2023-04-08T01:43:43.731Z,89.58
2023-04-08T01:44:48.048Z,89.59
2023-04-08T01:45:54.640Z,89.59
2023-04-08T01:46:58.273Z,89.68
2023-04-08T01:48:02.486Z,89.55
2023-04-08T01:49:07.553Z,89.55
2023-04-08T01:50:13.632Z,89.55
2023-04-08T01:51:17.154Z,89.51
2023-04-08T01:52:23.137Z,89.51
2023-04-08T01:53:26.148Z,89.63
2023-04-08T01:54:30.142Z,89.66
2023-04-08T01:55:33.460Z,89.71
2023-04-08T01:56:42.489Z,89.66
2023-04-08T01:57:51.394Z,89.71
2023-04-08T01:58:56.070Z,89.64
2023-04-08T02:00:05.642Z,89.69
2023-04-08T02:01:25.555Z,89.66
2023-04-08T02:02:30.159Z,89.57
2023-04-08T02:03:36.017Z,89.59
2023-04-08T02:04:39.121Z,89.59
2023-04-08T02:05:42.329Z,89.59
2023-04-08T02:06:47.193Z,89.67
2023-04-08T02:07:50.846Z,89.79
2023-04-08T02:08:54.564Z,89.73
2023-04-08T02:09:57.570Z,89.80
2023-04-08T02:11:00.484Z,89.94
2023-04-08T02:12:03.598Z,89.86
2023-04-08T02:13:07.670Z,89.77
2023-04-08T02:14:11.092Z,89.68
2023-04-08T02:15:15.110Z,89.59
2023-04-08T02:16:21.154Z,89.67
2023-04-08T02:17:27.673Z,89.69
2023-04-08T02:18:32.540Z,89.76
2023-04-08T02:19:52.838Z,89.83
2023-04-08T02:21:09.508Z,89.83
2023-04-08T02:22:19.925Z,89.96
2023-04-08T02:23:27.648Z,90.02
2023-04-08T02:24:33.869Z,90.09
2023-04-08T02:25:40.386Z,90.14
2023-04-08T02:26:45.061Z,90.18
2023-04-08T02:27:51.394Z,90.19
2023-04-08T02:28:56.369Z,90.05
2023-04-08T02:30:00.893Z,90.12
2023-04-08T02:31:05.859Z,90.20
2023-04-08T02:32:12.388Z,90.11
2023-04-08T02:33:21.101Z,90.20
2023-04-08T02:34:25.156Z,90.30
2023-04-08T02:35:29.041Z,90.15
2023-04-08T02:36:34.320Z,90.20
2023-04-08T02:37:39.239Z,90.24
2023-04-08T02:38:42.128Z,90.28
2023-04-08T02:39:45.105Z,90.34
2023-04-08T02:40:51.206Z,90.43
2023-04-08T02:41:54.126Z,90.51
2023-04-08T02:42:59.038Z,90.51
2023-04-08T02:44:02.398Z,90.43
2023-04-08T02:45:06.827Z,90.52
2023-04-08T02:46:11.766Z,90.51
2023-04-08T02:47:14.788Z,90.58
2023-04-08T02:48:17.640Z,90.52
2023-04-08T02:49:20.455Z,90.55
2023-04-08T02:50:23.430Z,90.61
2023-04-08T02:51:26.579Z,90.57
2023-04-08T02:52:29.486Z,90.59
2023-04-08T02:53:32.335Z,90.62
2023-04-08T02:54:35.643Z,90.59
2023-04-08T02:55:39.612Z,90.63
2023-04-08T02:56:42.471Z,90.62
2023-04-08T02:57:47.534Z,90.67
2023-04-08T02:58:52.244Z,90.64
2023-04-08T02:59:55.240Z,90.68
2023-04-08T03:00:58.201Z,90.74
2023-04-08T03:02:01.140Z,90.71
2023-04-08T03:03:04.119Z,90.70
2023-04-08T03:04:07.180Z,90.71
2023-04-08T03:05:11.041Z,90.72
2023-04-08T03:06:14.065Z,90.73
2023-04-08T03:07:16.966Z,90.78
2023-04-08T03:08:20.561Z,90.76
2023-04-08T03:09:23.483Z,90.82
2023-04-08T03:10:26.462Z,90.86
2023-04-08T03:11:29.450Z,90.81
2023-04-08T03:12:33.153Z,90.80
2023-04-08T03:13:36.210Z,90.79
2023-04-08T03:14:39.085Z,90.81
2023-04-08T03:15:42.339Z,90.82
2023-04-08T03:16:45.419Z,90.85
2023-04-08T03:17:48.382Z,90.85
2023-04-08T03:18:51.666Z,90.84
2023-04-08T03:19:55.265Z,90.83
2023-04-08T03:20:58.197Z,90.88
2023-04-08T03:22:01.242Z,90.90
2023-04-08T03:23:04.325Z,90.93
2023-04-08T03:24:07.242Z,90.99
2023-04-08T03:25:10.232Z,91.02
2023-04-08T03:26:13.207Z,90.93
2023-04-08T03:27:16.075Z,91.01
2023-04-08T03:28:19.010Z,91.07
2023-04-08T03:29:22.071Z,91.08
2023-04-08T03:30:25.430Z,91.06
2023-04-08T03:31:28.433Z,91.05
2023-04-08T03:32:31.536Z,91.12
2023-04-08T03:33:34.474Z,91.09
2023-04-08T03:34:37.343Z,90.94
2023-04-08T03:35:40.344Z,91.07
2023-04-08T03:36:43.223Z,91.12
2023-04-08T03:37:47.161Z,91.08
2023-04-08T03:38:50.218Z,91.04
2023-04-08T03:39:54.882Z,91.12
2023-04-08T03:40:57.768Z,91.14
2023-04-08T03:42:01.206Z,91.13
2023-04-08T03:43:05.831Z,91.10
2023-04-08T03:44:08.720Z,91.13
2023-04-08T03:45:11.717Z,91.22
2023-04-08T03:46:14.804Z,91.16
2023-04-08T03:47:18.160Z,91.25
2023-04-08T03:48:20.971Z,91.18
2023-04-08T03:49:23.958Z,91.15
2023-04-08T03:50:26.931Z,91.13
2023-04-08T03:51:29.839Z,91.24
2023-04-08T03:52:32.687Z,91.28
2023-04-08T03:53:35.940Z,91.30
2023-04-08T03:54:38.803Z,91.29
2023-04-08T03:55:41.709Z,91.33
2023-04-08T03:56:44.563Z,91.40
2023-04-08T03:57:47.470Z,91.47
2023-04-08T03:58:50.549Z,91.47
2023-04-08T03:59:53.753Z,91.46
2023-04-08T04:00:56.627Z,91.50
2023-04-08T04:01:59.533Z,91.55
2023-04-08T04:03:02.480Z,91.51
2023-04-08T04:04:05.798Z,91.54
2023-04-08T04:05:09.132Z,91.54
2023-04-08T04:06:12.078Z,91.58
2023-04-08T04:07:14.922Z,91.55
2023-04-08T04:08:17.852Z,91.62
2023-04-08T04:09:20.807Z,91.53
2023-04-08T04:10:23.687Z,91.62
2023-04-08T04:11:27.665Z,91.67
2023-04-08T04:12:30.636Z,91.61
2023-04-08T04:13:33.484Z,91.55
2023-04-08T04:14:36.346Z,91.68
2023-04-08T04:15:40.875Z,91.63
2023-04-08T04:16:43.760Z,91.66
2023-04-08T04:17:50.944Z,91.68
2023-04-08T04:18:54.409Z,91.75
2023-04-08T04:19:57.581Z,91.81
2023-04-08T04:21:00.468Z,91.82
2023-04-08T04:22:03.435Z,91.88
2023-04-08T04:23:06.262Z,91.87
2023-04-08T04:24:09.147Z,91.89
2023-04-08T04:25:12.049Z,91.99
2023-04-08T04:26:15.437Z,91.89
2023-04-08T04:27:18.320Z,91.89
2023-04-08T04:28:21.130Z,91.90
2023-04-08T04:29:23.998Z,91.93
2023-04-08T04:30:27.958Z,92.01
2023-04-08T04:31:30.975Z,91.96
2023-04-08T04:32:33.903Z,92.00
2023-04-08T04:33:36.747Z,92.05
2023-04-08T04:34:39.655Z,92.04
2023-04-08T04:35:42.682Z,92.03
2023-04-08T04:36:46.200Z,92.08
2023-04-08T04:37:50.347Z,92.16
2023-04-08T04:38:53.710Z,92.09
2023-04-08T04:39:56.906Z,92.10
2023-04-08T04:40:59.827Z,92.17
2023-04-08T04:42:03.602Z,92.08
2023-04-08T04:43:06.486Z,92.20
2023-04-08T04:44:09.343Z,92.19
2023-04-08T04:45:12.688Z,92.17
2023-04-08T04:46:16.257Z,92.25
2023-04-08T04:47:19.174Z,92.20
2023-04-08T04:48:22.120Z,92.33
2023-04-08T04:49:24.989Z,92.36
2023-04-08T04:50:28.310Z,92.32
2023-04-08T04:51:33.929Z,92.36
2023-04-08T04:52:37.421Z,92.38
2023-04-08T04:53:40.642Z,92.44
2023-04-08T04:54:43.945Z,92.48
2023-04-08T04:55:46.795Z,92.69
2023-04-08T04:56:49.646Z,92.77
2023-04-08T04:57:52.455Z,92.98
2023-04-08T04:58:55.406Z,92.97
2023-04-08T04:59:58.327Z,93.04
2023-04-08T05:01:01.458Z,93.03
2023-04-08T05:02:04.455Z,93.17
2023-04-08T05:03:07.715Z,93.22
2023-04-08T05:04:10.761Z,93.41
2023-04-08T05:05:13.801Z,93.57
2023-04-08T05:06:16.799Z,93.61
2023-04-08T05:07:20.020Z,93.63
2023-04-08T05:08:22.903Z,93.56
2023-04-08T05:09:26.118Z,93.84
2023-04-08T05:10:29.045Z,93.89
2023-04-08T05:11:31.932Z,94.03
2023-04-08T05:12:34.814Z,94.05
2023-04-08T05:13:37.678Z,94.21
2023-04-08T05:14:42.281Z,94.14
2023-04-08T05:15:47.863Z,94.15
2023-04-08T05:16:50.902Z,93.82
2023-04-08T05:17:53.830Z,93.85
2023-04-08T05:18:57.223Z,93.86
2023-04-08T05:20:00.415Z,94.09
2023-04-08T05:21:03.490Z,94.01
2023-04-08T05:22:06.508Z,94.08
2023-04-08T05:23:09.494Z,94.02
2023-04-08T05:24:12.364Z,94.00
2023-04-08T05:25:15.664Z,93.86
2023-04-08T05:26:20.406Z,93.78
2023-04-08T05:27:23.484Z,93.81
2023-04-08T05:28:26.373Z,93.87
2023-04-08T05:29:29.341Z,93.93
2023-04-08T05:30:32.331Z,93.92
2023-04-08T05:31:35.600Z,94.11
2023-04-08T05:32:38.943Z,94.13
2023-04-08T05:33:42.050Z,94.15
2023-04-08T05:34:45.757Z,94.25
2023-04-08T05:35:48.643Z,94.17
2023-04-08T05:36:54.532Z,94.09
2023-04-08T05:37:57.637Z,93.98
2023-04-08T05:39:02.233Z,93.96
2023-04-08T05:40:06.993Z,93.97
2023-04-08T05:41:10.136Z,93.93
2023-04-08T05:42:13.986Z,93.90
2023-04-08T05:43:16.991Z,94.06
2023-04-08T05:44:19.844Z,93.97
2023-04-08T05:45:22.757Z,93.83
2023-04-08T05:46:25.747Z,93.58
2023-04-08T05:47:28.826Z,93.23
2023-04-08T05:48:31.688Z,93.14
2023-04-08T05:49:34.600Z,92.84
2023-04-08T05:50:37.491Z,92.78
2023-04-08T05:51:40.476Z,92.73
2023-04-08T05:52:47.386Z,92.70
2023-04-08T05:53:50.383Z,92.54
2023-04-08T05:54:53.728Z,92.52
2023-04-08T05:55:56.713Z,92.45
2023-04-08T05:56:59.577Z,92.33
2023-04-08T05:58:02.454Z,92.07
2023-04-08T05:59:05.668Z,92.11
2023-04-08T06:00:10.613Z,92.16
2023-04-08T06:01:14.060Z,91.88
2023-04-08T06:02:17.035Z,91.79
2023-04-08T06:03:20.871Z,91.54
2023-04-08T06:04:24.152Z,91.52
2023-04-08T06:05:27.202Z,91.32
2023-04-08T06:06:30.031Z,91.41
2023-04-08T06:07:33.452Z,91.43
2023-04-08T06:08:36.593Z,91.37
2023-04-08T06:09:39.434Z,91.45
2023-04-08T06:10:49.434Z,91.52
2023-04-08T06:11:52.565Z,91.51
2023-04-08T06:12:55.395Z,91.43
2023-04-08T06:13:58.369Z,91.36
2023-04-08T06:15:01.242Z,91.02
2023-04-08T06:16:14.457Z,90.63
2023-04-08T06:17:17.464Z,90.41
2023-04-08T06:18:20.668Z,89.90
2023-04-08T06:19:24.822Z,89.09
2023-04-08T06:20:28.460Z,89.01
2023-04-08T06:21:31.843Z,88.81
2023-04-08T06:22:36.179Z,88.65
2023-04-08T06:23:39.473Z,88.75
2023-04-08T06:24:42.566Z,89.05
2023-04-08T06:25:45.462Z,88.90
2023-04-08T06:26:48.326Z,88.88
2023-04-08T06:27:51.218Z,88.73
2023-04-08T06:28:54.141Z,87.91
2023-04-08T06:29:57.302Z,87.97
2023-04-08T06:31:00.613Z,88.12
2023-04-08T06:32:03.584Z,88.13
2023-04-08T06:33:06.621Z,87.11
2023-04-08T06:34:09.560Z,87.05
2023-04-08T06:35:12.466Z,86.92
2023-04-08T06:36:15.887Z,86.77
2023-04-08T06:37:18.923Z,86.60
2023-04-08T06:38:21.817Z,85.99
2023-04-08T06:39:24.677Z,85.37
2023-04-08T06:40:27.619Z,86.07
2023-04-08T06:41:31.522Z,85.96
2023-04-08T06:42:43.185Z,85.65
2023-04-08T06:44:06.281Z,85.41
2023-04-08T06:45:09.780Z,85.52
2023-04-08T06:46:13.366Z,85.22
2023-04-08T06:47:17.751Z,85.12
2023-04-08T06:48:21.067Z,85.09
2023-04-08T06:49:24.106Z,84.99
2023-04-08T06:50:27.170Z,84.64
2023-04-08T06:51:31.598Z,84.81
2023-04-08T06:52:34.494Z,84.60
2023-04-08T06:53:37.414Z,84.24
2023-04-08T06:54:41.185Z,83.98
2023-04-08T06:55:44.105Z,83.84
2023-04-08T06:56:46.941Z,83.80
2023-04-08T06:57:49.838Z,83.54
2023-04-08T06:58:53.554Z,83.69
2023-04-08T06:59:56.626Z,83.38
2023-04-08T07:01:00.680Z,82.97
2023-04-08T07:02:04.050Z,82.94
2023-04-08T07:03:07.233Z,82.82
2023-04-08T07:04:10.259Z,82.72
2023-04-08T07:05:13.156Z,83.02
2023-04-08T07:06:16.458Z,83.29
2023-04-08T07:07:19.372Z,82.69
2023-04-08T07:08:22.273Z,82.20
2023-04-08T07:09:25.418Z,81.89
2023-04-08T07:10:31.764Z,82.08
2023-04-08T07:11:34.757Z,81.62
2023-04-08T07:12:37.777Z,82.19
2023-04-08T07:13:40.670Z,82.48
2023-04-08T07:14:43.719Z,81.97
2023-04-08T07:15:46.905Z,82.18
2023-04-08T07:16:49.843Z,81.93
2023-04-08T07:17:52.859Z,81.62
2023-04-08T07:18:55.794Z,81.04
2023-04-08T07:19:58.642Z,80.73
2023-04-08T07:21:01.933Z,81.03
2023-04-08T07:22:04.853Z,80.74
2023-04-08T07:23:08.060Z,80.76
2023-04-08T07:24:11.203Z,81.10
2023-04-08T07:25:14.155Z,80.88
2023-04-08T07:26:17.040Z,81.04
2023-04-08T07:27:19.914Z,80.86
2023-04-08T07:28:22.849Z,80.82
2023-04-08T07:29:26.106Z,80.09
2023-04-08T07:30:29.069Z,80.17
2023-04-08T07:31:32.093Z,80.46
2023-04-08T07:32:35.399Z,80.16
2023-04-08T07:33:38.303Z,80.08
2023-04-08T07:34:41.205Z,80.12
2023-04-08T07:35:44.249Z,79.61
2023-04-08T07:36:47.194Z,79.19
2023-04-08T07:37:53.169Z,79.70
2023-04-08T07:38:56.345Z,79.77
2023-04-08T07:39:59.502Z,79.34
2023-04-08T07:41:02.547Z,79.57
2023-04-08T07:42:05.423Z,79.79
2023-04-08T07:43:09.582Z,79.83
2023-04-08T07:44:12.497Z,79.98
2023-04-08T07:45:16.035Z,79.47
2023-04-08T07:46:20.132Z,79.33
2023-04-08T07:47:23.142Z,79.70
2023-04-08T07:48:26.361Z,79.81
2023-04-08T07:49:29.171Z,79.97
2023-04-08T07:50:32.377Z,79.58
2023-04-08T07:51:35.272Z,78.83
2023-04-08T07:52:38.121Z,79.12
2023-04-08T07:53:40.982Z,79.20
2023-04-08T07:54:43.991Z,79.05
2023-04-08T07:55:46.860Z,78.92
2023-04-08T07:56:49.897Z,79.35
2023-04-08T07:57:53.060Z,79.26
2023-04-08T07:58:56.471Z,78.95
2023-04-08T07:59:59.595Z,79.03
2023-04-08T08:01:02.587Z,79.45
2023-04-08T08:02:05.465Z,79.77
2023-04-08T08:03:08.555Z,79.59
2023-04-08T08:04:11.900Z,79.35
2023-04-08T08:05:15.101Z,79.27
2023-04-08T08:06:18.217Z,79.36
2023-04-08T08:07:21.387Z,78.37
2023-04-08T08:08:24.280Z,79.21
2023-04-08T08:09:27.167Z,78.33
2023-04-08T08:10:30.073Z,78.80
2023-04-08T08:11:33.453Z,79.43
2023-04-08T08:12:36.380Z,79.67
2023-04-08T08:13:39.510Z,79.77
2023-04-08T08:14:42.399Z,79.63
2023-04-08T08:15:45.513Z,78.90
2023-04-08T08:16:48.724Z,78.79
2023-04-08T08:17:51.660Z,78.87
2023-04-08T08:18:54.758Z,78.81
2023-04-08T08:19:58.382Z,78.82
2023-04-08T08:21:02.208Z,78.59
2023-04-08T08:22:05.099Z,78.28
2023-04-08T08:23:08.501Z,78.56
2023-04-08T08:24:11.442Z,78.99
2023-04-08T08:25:14.459Z,79.08
2023-04-08T08:26:17.500Z,79.23
2023-04-08T08:27:20.449Z,78.84
2023-04-08T08:28:23.843Z,79.00
2023-04-08T08:29:26.718Z,79.28
2023-04-08T08:30:29.787Z,79.26
2023-04-08T08:31:32.840Z,79.35
2023-04-08T08:32:36.603Z,79.23
2023-04-08T08:33:39.459Z,79.16
2023-04-08T08:34:42.467Z,79.12
2023-04-08T08:35:45.583Z,79.18
2023-04-08T08:36:48.533Z,78.88
2023-04-08T08:37:51.375Z,78.67
2023-04-08T08:38:54.393Z,78.56
2023-04-08T08:39:57.302Z,78.13
2023-04-08T08:41:00.890Z,78.48
2023-04-08T08:42:03.798Z,78.61
2023-04-08T08:43:06.739Z,78.60
2023-04-08T08:44:10.230Z,78.46
2023-04-08T08:45:13.271Z,78.77
2023-04-08T08:46:18.339Z,78.90
2023-04-08T08:47:21.384Z,78.70
2023-04-08T08:48:24.543Z,78.44
2023-04-08T08:49:27.631Z,78.37
2023-04-08T08:50:30.498Z,78.33
2023-04-08T08:51:34.206Z,78.50
2023-04-08T08:52:37.096Z,78.79
2023-04-08T08:53:45.262Z,78.58
2023-04-08T08:54:48.595Z,78.38
2023-04-08T08:56:16.243Z,78.87
2023-04-08T08:57:19.530Z,78.13
2023-04-08T08:58:22.490Z,78.18
2023-04-08T08:59:25.652Z,77.91
2023-04-08T09:00:35.893Z,77.21
2023-04-08T09:01:40.847Z,77.32
2023-04-08T09:02:44.288Z,77.99
2023-04-08T09:03:47.474Z,77.97
2023-04-08T09:05:11.118Z,77.73
2023-04-08T09:06:18.470Z,77.50
2023-04-08T09:07:26.063Z,77.64
2023-04-08T09:08:32.599Z,77.74
2023-04-08T09:09:51.661Z,77.38
2023-04-08T09:10:55.902Z,76.98
2023-04-08T09:12:05.267Z,77.26
2023-04-08T09:13:08.255Z,77.35
2023-04-08T09:14:25.740Z,77.35
2023-04-08T09:15:28.726Z,76.47
2023-04-08T09:16:32.395Z,76.38
2023-04-08T09:17:37.651Z,76.24
2023-04-08T09:18:43.447Z,76.43
2023-04-08T09:20:18.695Z,76.73
2023-04-08T09:21:25.103Z,76.80
2023-04-08T09:22:27.975Z,77.09
2023-04-08T09:23:45.465Z,76.91
2023-04-08T09:24:48.422Z,76.28
2023-04-08T09:25:51.412Z,76.17
2023-04-08T09:26:54.258Z,76.66
2023-04-08T09:27:57.772Z,76.94
2023-04-08T09:29:18.401Z,76.31
2023-04-08T09:30:28.656Z,75.60
2023-04-08T09:31:38.322Z,75.81
2023-04-08T09:32:52.528Z,75.22
2023-04-08T09:33:58.897Z,75.76
2023-04-08T09:35:01.796Z,76.38
2023-04-08T09:36:05.376Z,76.21
2023-04-08T09:37:08.363Z,75.58
2023-04-08T09:38:11.217Z,75.78
2023-04-08T09:39:14.038Z,76.00
2023-04-08T09:40:17.933Z,76.06
2023-04-08T09:41:23.519Z,75.94
2023-04-08T09:42:27.114Z,75.60
2023-04-08T09:43:30.034Z,75.62
2023-04-08T09:44:34.687Z,75.36
2023-04-08T09:45:42.790Z,75.39
2023-04-08T09:46:54.216Z,75.24
2023-04-08T09:48:05.053Z,74.93
2023-04-08T09:49:17.965Z,74.74
2023-04-08T09:50:24.901Z,74.62
2023-04-08T09:51:33.325Z,74.18
2023-04-08T09:52:48.563Z,73.72
2023-04-08T09:54:00.322Z,74.08
2023-04-08T09:55:05.152Z,73.76
2023-04-08T09:56:11.904Z,73.76
2023-04-08T09:57:21.417Z,73.98
2023-04-08T09:58:38.775Z,74.19
2023-04-08T09:59:49.371Z,73.54
2023-04-08T10:00:54.247Z,73.13
2023-04-08T10:02:00.947Z,73.44
2023-04-08T10:03:34.940Z,73.60
2023-04-08T10:04:42.084Z,72.89
2023-04-08T10:05:47.047Z,73.25
2023-04-08T10:06:55.527Z,73.05
2023-04-08T10:07:59.156Z,73.10
2023-04-08T10:09:02.992Z,72.68
2023-04-08T10:10:08.048Z,71.70
2023-04-08T10:11:11.436Z,71.10
2023-04-08T10:12:14.761Z,71.46
2023-04-08T10:13:17.946Z,71.25
2023-04-08T10:14:22.313Z,71.83
2023-04-08T10:15:27.305Z,72.60
2023-04-08T10:16:30.396Z,72.57
2023-04-08T10:17:36.942Z,72.90
2023-04-08T10:18:39.993Z,73.06
2023-04-08T10:19:43.150Z,72.84
2023-04-08T10:20:47.485Z,72.21
2023-04-08T10:21:50.572Z,72.43
2023-04-08T10:22:53.445Z,71.51
2023-04-08T10:24:06.023Z,70.56
2023-04-08T10:25:37.015Z,70.75
2023-04-08T10:26:44.469Z,70.76
2023-04-08T10:27:47.845Z,70.34
2023-04-08T10:28:50.715Z,70.98
2023-04-08T10:29:53.604Z,71.06
2023-04-08T10:30:57.732Z,71.07
2023-04-08T10:32:02.039Z,70.68
2023-04-08T10:33:11.470Z,70.96
2023-04-08T10:34:21.538Z,71.79
2023-04-08T10:35:35.833Z,71.53
2023-04-08T10:36:38.754Z,71.98
2023-04-08T10:37:41.938Z,71.94
2023-04-08T10:38:46.838Z,71.68
2023-04-08T10:39:51.473Z,71.00
2023-04-08T10:40:55.135Z,70.81
2023-04-08T10:41:58.149Z,71.11
2023-04-08T10:43:01.159Z,70.88
2023-04-08T10:44:04.316Z,70.70
2023-04-08T10:45:07.693Z,70.99
2023-04-08T10:46:11.003Z,70.97
2023-04-08T10:47:14.144Z,70.88
2023-04-08T10:48:22.944Z,71.28
2023-04-08T10:49:33.424Z,70.42
2023-04-08T10:50:36.815Z,69.91
2023-04-08T10:51:40.459Z,69.77
2023-04-08T10:52:47.325Z,70.04
2023-04-08T10:53:50.471Z,70.52
2023-04-08T10:54:54.924Z,69.95
2023-04-08T10:56:15.699Z,69.91
2023-04-08T10:57:24.942Z,69.77
2023-04-08T10:58:27.839Z,69.54
2023-04-08T10:59:33.270Z,69.19
2023-04-08T11:00:38.514Z,68.68
2023-04-08T11:01:42.084Z,68.46
2023-04-08T11:02:45.484Z,68.62
2023-04-08T11:03:49.944Z,69.25
2023-04-08T11:04:54.561Z,68.26
2023-04-08T11:05:58.265Z,67.95
2023-04-08T11:07:05.997Z,68.15
2023-04-08T11:08:08.996Z,67.43
2023-04-08T11:09:12.050Z,67.63
2023-04-08T11:10:14.988Z,67.83
2023-04-08T11:11:19.342Z,68.18
2023-04-08T11:12:23.132Z,68.47
2023-04-08T11:13:25.992Z,67.88
2023-04-08T11:14:29.074Z,67.07
2023-04-08T11:15:32.590Z,66.84
2023-04-08T11:16:38.092Z,67.16
2023-04-08T11:17:42.331Z,67.16
2023-04-08T11:18:46.236Z,67.48
2023-04-08T11:19:49.268Z,66.79
2023-04-08T11:20:53.092Z,66.77
2023-04-08T11:21:55.976Z,67.02
2023-04-08T11:22:58.926Z,65.96
2023-04-08T11:24:01.897Z,65.97
2023-04-08T11:25:08.243Z,65.99
2023-04-08T11:26:11.623Z,65.64
2023-04-08T11:27:15.879Z,66.17
2023-04-08T11:28:19.751Z,66.30
2023-04-08T11:29:22.800Z,66.49
2023-04-08T11:30:25.752Z,66.14
2023-04-08T11:31:29.673Z,66.15
2023-04-08T11:32:33.697Z,65.03
2023-04-08T11:33:37.117Z,64.65
2023-04-08T11:34:40.724Z,65.00
2023-04-08T11:35:44.746Z,65.01
2023-04-08T11:36:47.947Z,65.18
2023-04-08T11:37:52.636Z,65.43
2023-04-08T11:38:55.906Z,65.50
2023-04-08T11:39:58.853Z,65.64
2023-04-08T11:41:01.720Z,65.32
2023-04-08T11:42:04.670Z,64.65
2023-04-08T11:43:11.862Z,65.43
2023-04-08T11:44:14.820Z,64.75
2023-04-08T11:45:21.429Z,66.00
2023-04-08T11:46:24.933Z,64.66
2023-04-08T11:47:34.189Z,64.10
2023-04-08T11:48:38.647Z,64.37
2023-04-08T11:49:45.789Z,63.66
2023-04-08T11:50:51.271Z,63.84
2023-04-08T11:51:56.895Z,63.41
2023-04-08T11:52:59.852Z,62.83
2023-04-08T11:54:08.942Z,62.81
2023-04-08T11:55:21.821Z,62.52
2023-04-08T11:56:26.839Z,62.16
2023-04-08T11:57:30.322Z,62.43
2023-04-08T11:58:33.544Z,62.70
2023-04-08T11:59:36.981Z,63.15
2023-04-08T12:00:40.157Z,62.63
2023-04-08T12:01:43.349Z,62.65
2023-04-08T12:02:48.178Z,62.30
2023-04-08T12:04:02.405Z,62.19
2023-04-08T12:05:05.973Z,62.16
2023-04-08T12:06:09.697Z,62.24
2023-04-08T12:07:13.549Z,62.72
2023-04-08T12:08:16.415Z,62.80
2023-04-08T12:09:19.410Z,62.99
2023-04-08T12:10:22.473Z,62.88
2023-04-08T12:11:25.483Z,62.57
2023-04-08T12:12:28.430Z,61.52
2023-04-08T12:13:31.553Z,60.74
2023-04-08T12:14:34.637Z,61.28
2023-04-08T12:15:37.913Z,60.66
2023-04-08T12:16:40.908Z,61.05
2023-04-08T12:17:44.337Z,61.07
2023-04-08T12:18:47.286Z,61.19
2023-04-08T12:19:50.427Z,61.18
2023-04-08T12:20:53.565Z,61.03
2023-04-08T12:21:56.414Z,61.04
2023-04-08T12:22:59.410Z,60.98
2023-04-08T12:24:02.321Z,61.08
2023-04-08T12:25:06.432Z,60.87
2023-04-08T12:26:09.471Z,61.11
2023-04-08T12:27:12.358Z,61.20
2023-04-08T12:28:15.450Z,61.04
2023-04-08T12:29:18.335Z,60.91
2023-04-08T12:30:21.383Z,59.76
2023-04-08T12:31:24.365Z,59.55
2023-04-08T12:32:27.296Z,60.06
2023-04-08T12:33:30.716Z,59.64
2023-04-08T12:34:33.649Z,59.72
2023-04-08T12:35:37.173Z,59.65
2023-04-08T12:36:41.726Z,60.10
2023-04-08T12:37:44.815Z,60.05
2023-04-08T12:38:47.727Z,60.03
2023-04-08T12:39:50.755Z,60.07
2023-04-08T12:40:53.988Z,59.87
2023-04-08T12:41:57.052Z,58.88
2023-04-08T12:42:59.910Z,58.52
2023-04-08T12:44:02.873Z,59.07
2023-04-08T12:45:06.689Z,58.64
2023-04-08T12:46:09.536Z,57.84
2023-04-08T12:47:12.571Z,58.03
2023-04-08T12:48:15.558Z,58.14
2023-04-08T12:49:18.464Z,57.35
2023-04-08T12:50:21.533Z,57.82
2023-04-08T12:51:26.151Z,57.26
2023-04-08T12:52:29.020Z,57.12
2023-04-08T12:53:31.942Z,57.26
2023-04-08T12:54:34.873Z,57.13
2023-04-08T12:55:37.779Z,56.99
2023-04-08T12:56:40.852Z,57.69
2023-04-08T12:57:43.765Z,57.83
2023-04-08T12:58:47.133Z,57.69
2023-04-08T12:59:49.956Z,57.84
2023-04-08T13:00:52.939Z,57.79
2023-04-08T13:01:56.242Z,57.71
2023-04-08T13:02:59.149Z,57.73
2023-04-08T13:04:02.296Z,57.95
2023-04-08T13:05:05.742Z,58.18
2023-04-08T13:06:08.615Z,58.13
2023-04-08T13:07:11.461Z,57.94
2023-04-08T13:08:14.505Z,57.91
2023-04-08T13:09:18.576Z,57.92
2023-04-08T13:10:21.446Z,58.10
2023-04-08T13:11:24.757Z,58.36
2023-04-08T13:12:27.686Z,58.35
2023-04-08T13:13:30.562Z,58.86
2023-04-08T13:14:33.450Z,58.64
2023-04-08T13:15:37.020Z,58.53
2023-04-08T13:16:39.873Z,58.56
2023-04-08T13:17:42.865Z,58.49
2023-04-08T13:18:45.937Z,58.28
2023-04-08T13:19:50.171Z,57.92
2023-04-08T13:20:54.470Z,58.30
2023-04-08T13:21:57.377Z,58.12
2023-04-08T13:23:01.095Z,58.00
2023-04-08T13:24:04.184Z,58.20
2023-04-08T13:25:07.574Z,58.19
2023-04-08T13:26:10.824Z,58.11
2023-04-08T13:27:13.672Z,57.85
2023-04-08T13:28:16.676Z,57.89
2023-04-08T13:29:19.757Z,57.97
2023-04-08T13:30:22.778Z,58.38
2023-04-08T13:31:26.117Z,58.58
2023-04-08T13:32:29.078Z,58.28
2023-04-08T13:33:31.950Z,58.34
2023-04-08T13:34:34.804Z,58.25
2023-04-08T13:35:37.795Z,58.24
2023-04-08T13:36:40.739Z,58.31
2023-04-08T13:37:43.938Z,58.27
2023-04-08T13:38:46.818Z,58.28
2023-04-08T13:39:49.628Z,58.20
2023-04-08T13:40:52.439Z,58.10
2023-04-08T13:41:55.284Z,57.95
2023-04-08T13:42:58.141Z,57.62
2023-04-08T13:44:01.033Z,57.39
2023-04-08T13:45:04.370Z,57.38
2023-04-08T13:46:08.264Z,57.42
2023-04-08T13:47:11.663Z,57.81
2023-04-08T13:48:14.533Z,57.74
2023-04-08T13:49:17.424Z,57.69
2023-04-08T13:50:20.607Z,57.68